TAF Text Data
IDs:
Format:
Raw Decoded Include METAR

Data at: 0206 UTC 01 Nov 2020

KMPV 312331Z 0100/0124 17003KT P6SM SKC
  FM010800 17007KT P6SM BKN100 WS020/21035KT
  FM011500 18012G20KT P6SM OVC090
  FM012100 17009KT P6SM VCSH BKN025
  FM012200 17010KT 4SM -SHRA BR BKN020